createdAt,value
2023-05-19T00:00:31.175Z,101237.02
2023-05-19T00:03:38.501Z,101240.27
2023-05-19T00:06:19.484Z,101238.58
2023-05-19T00:09:25.269Z,101239.83
2023-05-19T00:12:06.561Z,101236.35
2023-05-19T00:15:20.300Z,101237.35
2023-05-19T00:18:02.346Z,101238.81
2023-05-19T00:21:12.355Z,101237.70
2023-05-19T00:24:19.132Z,101238.55
2023-05-19T00:27:38.427Z,101235.70
2023-05-19T00:30:33.941Z,101240.75
2023-05-19T00:33:39.996Z,101241.63
2023-05-19T00:36:41.344Z,101240.81
2023-05-19T00:39:47.915Z,101236.17
2023-05-19T00:43:19.383Z,101236.41
2023-05-19T00:46:15.450Z,101241.45
2023-05-19T00:49:03.436Z,101241.58
2023-05-19T00:51:59.612Z,101244.55
2023-05-19T00:55:10.127Z,101246.86
2023-05-19T00:58:15.685Z,101248.11
2023-05-19T01:01:27.080Z,101245.69
2023-05-19T01:04:29.962Z,101248.25
2023-05-19T01:07:32.546Z,101249.58
2023-05-19T01:10:34.544Z,101249.88
2023-05-19T01:13:45.107Z,101245.84
2023-05-19T01:17:18.983Z,101248.66
2023-05-19T01:21:05.096Z,101248.58
2023-05-19T01:24:30.304Z,101248.57
2023-05-19T01:27:51.833Z,101248.20
2023-05-19T01:31:13.753Z,101255.58
2023-05-19T01:34:36.404Z,101254.70
2023-05-19T01:37:24.856Z,101247.51
2023-05-19T01:40:25.297Z,101245.04
2023-05-19T01:43:01.855Z,101243.73
2023-05-19T01:45:49.739Z,101239.52
2023-05-19T01:48:41.766Z,101243.48
2023-05-19T01:51:41.962Z,101244.61
2023-05-19T01:54:48.909Z,101249.23
2023-05-19T01:57:51.944Z,101250.04
2023-05-19T02:02:02.002Z,101248.20
2023-05-19T02:05:10.739Z,101247.48
2023-05-19T02:08:34.322Z,101246.21
2023-05-19T02:11:57.370Z,101246.17
2023-05-19T02:15:32.947Z,101250.24
2023-05-19T02:18:22.339Z,101252.25
2023-05-19T02:22:03.672Z,101249.10
2023-05-19T02:24:56.932Z,101251.70
2023-05-19T02:28:15.179Z,101247.58
2023-05-19T02:31:28.445Z,101247.22
2023-05-19T02:34:29.785Z,101238.16
2023-05-19T02:37:15.760Z,101236.02
2023-05-19T02:40:18.460Z,101234.64
2023-05-19T02:42:47.522Z,101230.65
2023-05-19T02:45:29.012Z,101230.02
2023-05-19T02:48:11.041Z,101233.73
2023-05-19T02:51:18.097Z,101230.86
2023-05-19T02:54:17.808Z,101235.81
2023-05-19T02:57:27.898Z,101239.81
2023-05-19T03:00:57.782Z,101240.05
2023-05-19T03:04:02.322Z,101238.60
2023-05-19T03:06:49.541Z,101237.56
2023-05-19T03:09:49.014Z,101239.42
2023-05-19T03:13:00.183Z,101236.09
2023-05-19T03:16:02.428Z,101238.79
2023-05-19T03:19:01.776Z,101235.91
2023-05-19T03:22:06.724Z,101232.97
2023-05-19T03:25:33.576Z,101229.55
2023-05-19T03:28:40.806Z,101230.41
2023-05-19T03:32:07.921Z,101227.41
2023-05-19T03:35:13.567Z,101225.00
2023-05-19T03:38:12.858Z,101225.42
2023-05-19T03:41:01.927Z,101226.02
2023-05-19T03:43:42.702Z,101236.27
2023-05-19T03:46:41.177Z,101229.55
2023-05-19T03:49:50.506Z,101232.56
2023-05-19T03:53:05.899Z,101232.37
2023-05-19T03:55:52.507Z,101226.83
2023-05-19T03:58:50.268Z,101227.84
2023-05-19T04:01:49.065Z,101233.61
2023-05-19T04:04:48.312Z,101235.62
2023-05-19T04:07:51.478Z,101237.19
2023-05-19T04:10:35.632Z,101235.38
2023-05-19T04:13:12.799Z,101233.29
2023-05-19T04:16:23.447Z,101232.34
2023-05-19T04:19:07.544Z,101231.95
2023-05-19T04:22:07.869Z,101231.57
2023-05-19T04:24:37.342Z,101231.66
2023-05-19T04:27:16.797Z,101231.23
2023-05-19T04:30:22.806Z,101226.96
2023-05-19T04:33:21.442Z,101232.96
2023-05-19T04:36:19.905Z,101232.34
2023-05-19T04:38:49.219Z,101230.02
2023-05-19T04:41:30.214Z,101229.30
2023-05-19T04:44:10.040Z,101228.48
2023-05-19T04:46:43.090Z,101233.25
2023-05-19T04:49:19.717Z,101241.02
2023-05-19T04:52:23.014Z,101243.10
2023-05-19T04:55:14.616Z,101245.00
2023-05-19T04:58:15.573Z,101249.73
2023-05-19T05:00:49.783Z,101253.08
2023-05-19T05:03:34.606Z,101253.89
2023-05-19T05:06:29.024Z,101249.30
2023-05-19T05:09:05.311Z,101252.26
2023-05-19T05:11:58.404Z,101248.74
2023-05-19T05:14:42.760Z,101251.48
2023-05-19T05:17:41.280Z,101250.41
2023-05-19T05:20:31.634Z,101249.70
2023-05-19T05:23:30.418Z,101249.63
2023-05-19T05:26:23.531Z,101254.89
2023-05-19T05:29:03.394Z,101255.77
2023-05-19T05:31:55.677Z,101256.67
2023-05-19T05:34:41.298Z,101255.63
2023-05-19T05:37:16.042Z,101254.93
2023-05-19T05:40:45.775Z,101255.03
2023-05-19T05:43:20.272Z,101255.71
2023-05-19T05:46:30.293Z,101256.85
2023-05-19T05:49:10.445Z,101253.14
2023-05-19T05:52:05.693Z,101255.06
2023-05-19T05:55:06.411Z,101256.47
2023-05-19T05:57:54.267Z,101250.14
2023-05-19T06:00:45.682Z,101254.59
2023-05-19T06:03:37.035Z,101257.72
2023-05-19T06:06:38.602Z,101262.35
2023-05-19T06:09:30.216Z,101266.27
2023-05-19T06:12:19.093Z,101267.08
2023-05-19T06:15:16.905Z,101267.91
2023-05-19T06:18:11.848Z,101269.77
2023-05-19T06:20:45.632Z,101268.73
2023-05-19T06:23:29.355Z,101269.20
2023-05-19T06:26:38.908Z,101269.52
2023-05-19T06:29:40.092Z,101271.67
2023-05-19T06:32:19.401Z,101274.20
2023-05-19T06:34:59.558Z,101275.88
2023-05-19T06:37:31.824Z,101275.76
2023-05-19T06:40:10.556Z,101276.46
2023-05-19T06:42:42.513Z,101278.75
2023-05-19T06:45:55.207Z,101276.53
2023-05-19T06:48:27.498Z,101275.16
2023-05-19T06:51:04.867Z,101278.52
2023-05-19T06:53:45.340Z,101279.95
2023-05-19T06:56:52.421Z,101282.34
2023-05-19T06:59:41.283Z,101281.83
2023-05-19T07:02:26.189Z,101282.73
2023-05-19T07:05:27.403Z,101288.37
2023-05-19T07:08:07.036Z,101291.04
2023-05-19T07:10:50.305Z,101294.16
2023-05-19T07:13:44.551Z,101292.33
2023-05-19T07:16:26.742Z,101295.45
2023-05-19T07:19:15.686Z,101295.92
2023-05-19T07:22:03.569Z,101295.17
2023-05-19T07:24:48.416Z,101294.00
2023-05-19T07:27:34.827Z,101293.60
2023-05-19T07:30:11.959Z,101292.60
2023-05-19T07:33:08.685Z,101289.95
2023-05-19T07:35:46.236Z,101291.41
2023-05-19T07:38:21.807Z,101281.45
2023-05-19T07:40:56.308Z,101286.33
2023-05-19T07:43:32.708Z,101284.48
2023-05-19T07:46:22.773Z,101280.10
2023-05-19T07:49:25.432Z,101277.89
2023-05-19T07:52:08.127Z,101279.45
2023-05-19T07:54:46.595Z,101282.45
2023-05-19T07:57:35.629Z,101282.42
2023-05-19T08:00:17.950Z,101285.96
2023-05-19T08:02:55.002Z,101285.58
2023-05-19T08:05:33.031Z,101289.02
2023-05-19T08:08:02.982Z,101295.69
2023-05-19T08:10:41.152Z,101295.50
2023-05-19T08:13:49.831Z,101295.16
2023-05-19T08:16:22.024Z,101291.62
2023-05-19T08:19:11.125Z,101293.66
2023-05-19T08:22:01.573Z,101293.14
2023-05-19T08:24:58.055Z,101284.17
2023-05-19T08:27:27.032Z,101281.71
2023-05-19T08:30:01.986Z,101289.59
2023-05-19T08:32:48.841Z,101289.27
2023-05-19T08:35:32.832Z,101286.51
2023-05-19T08:38:07.464Z,101288.76
2023-05-19T08:40:42.650Z,101291.64
2023-05-19T08:43:24.585Z,101289.81
2023-05-19T08:46:02.910Z,101290.45
2023-05-19T08:48:44.816Z,101290.71
2023-05-19T08:51:39.602Z,101287.02
2023-05-19T08:54:20.226Z,101284.73
2023-05-19T08:56:58.977Z,101287.99
2023-05-19T08:59:35.339Z,101286.42
2023-05-19T09:02:14.243Z,101282.04
2023-05-19T09:04:51.513Z,101282.80
2023-05-19T09:07:25.959Z,101283.52
2023-05-19T09:10:01.241Z,101281.88
2023-05-19T09:12:51.440Z,101279.54
2023-05-19T09:15:31.111Z,101281.38
2023-05-19T09:18:21.236Z,101283.29
2023-05-19T09:20:49.946Z,101279.58
2023-05-19T09:23:28.899Z,101274.94
2023-05-19T09:26:08.072Z,101271.71
2023-05-19T09:29:04.122Z,101270.13
2023-05-19T09:31:35.385Z,101270.63
2023-05-19T09:34:22.608Z,101270.68
2023-05-19T09:36:53.936Z,101268.55
2023-05-19T09:39:26.351Z,101268.30
2023-05-19T09:42:06.969Z,101267.56
2023-05-19T09:44:45.696Z,101261.98
2023-05-19T09:47:16.836Z,101262.45
2023-05-19T09:49:54.129Z,101258.92
2023-05-19T09:52:26.255Z,101255.52
2023-05-19T09:55:05.113Z,101254.80
2023-05-19T09:57:38.008Z,101244.55
2023-05-19T10:00:18.463Z,101251.20
2023-05-19T10:02:48.837Z,101249.30
2023-05-19T10:05:23.899Z,101247.59
2023-05-19T10:07:57.215Z,101246.05
2023-05-19T10:10:28.031Z,101249.23
2023-05-19T10:12:59.229Z,101245.95
2023-05-19T10:15:28.394Z,101239.95
2023-05-19T10:17:57.303Z,101238.30
2023-05-19T10:20:27.837Z,101236.27
2023-05-19T10:23:05.512Z,101233.46
2023-05-19T10:25:44.081Z,101230.94
2023-05-19T10:28:28.422Z,101232.14
2023-05-19T10:31:04.761Z,101240.47
2023-05-19T10:34:11.012Z,101240.52
2023-05-19T10:36:49.118Z,101244.22
2023-05-19T10:39:33.277Z,101236.59
2023-05-19T10:42:15.905Z,101244.71
2023-05-19T10:45:28.014Z,101245.80
2023-05-19T10:47:59.886Z,101243.34
2023-05-19T10:50:39.296Z,101243.30
2023-05-19T10:53:22.733Z,101245.30
2023-05-19T10:56:05.114Z,101248.71
2023-05-19T10:58:46.008Z,101246.92
2023-05-19T11:01:27.505Z,101243.29
2023-05-19T11:04:12.414Z,101236.95
2023-05-19T11:07:03.928Z,101233.11
2023-05-19T11:09:41.472Z,101232.45
2023-05-19T11:12:11.272Z,101236.00
2023-05-19T11:14:41.554Z,101236.45
2023-05-19T11:17:15.468Z,101232.58
2023-05-19T11:19:55.497Z,101235.98
2023-05-19T11:22:27.638Z,101238.02
2023-05-19T11:24:57.156Z,101233.94
2023-05-19T11:27:38.636Z,101231.58
2023-05-19T11:30:15.013Z,101237.88
2023-05-19T11:32:47.752Z,101240.10
2023-05-19T11:35:19.640Z,101235.75
2023-05-19T11:37:52.716Z,101230.29
2023-05-19T11:40:22.854Z,101231.45
2023-05-19T11:42:52.624Z,101231.00
2023-05-19T11:45:28.925Z,101228.48
2023-05-19T11:48:01.986Z,101229.12
2023-05-19T11:50:33.082Z,101230.08
2023-05-19T11:53:02.130Z,101230.16
2023-05-19T11:55:34.846Z,101229.08
2023-05-19T11:58:05.754Z,101228.83
2023-05-19T12:00:41.143Z,101230.64
2023-05-19T12:03:11.011Z,101229.42
2023-05-19T12:05:48.782Z,101233.69
2023-05-19T12:08:19.278Z,101231.34
2023-05-19T12:10:52.484Z,101234.36
2023-05-19T12:13:23.480Z,101233.04
2023-05-19T12:15:53.640Z,101234.69
2023-05-19T12:18:22.927Z,101231.61
2023-05-19T12:20:55.433Z,101230.02
2023-05-19T12:23:25.826Z,101231.02
2023-05-19T12:25:56.021Z,101229.77
2023-05-19T12:28:25.566Z,101232.45
2023-05-19T12:30:59.013Z,101233.98
2023-05-19T12:33:29.647Z,101226.71
2023-05-19T12:35:58.451Z,101239.51
2023-05-19T12:38:29.785Z,101245.16
2023-05-19T12:41:01.757Z,101243.05
2023-05-19T12:43:31.052Z,101249.38
2023-05-19T12:46:12.752Z,101245.89
2023-05-19T12:48:47.018Z,101245.00
2023-05-19T12:51:26.721Z,101246.17
2023-05-19T12:53:57.807Z,101244.73
2023-05-19T12:56:28.718Z,101243.16
2023-05-19T12:58:57.376Z,101241.42
2023-05-19T13:01:30.994Z,101238.86
2023-05-19T13:04:04.693Z,101239.19
2023-05-19T13:06:50.063Z,101234.80
2023-05-19T13:09:26.029Z,101233.80
2023-05-19T13:11:59.110Z,101231.77
2023-05-19T13:14:38.852Z,101234.23
2023-05-19T13:17:14.075Z,101234.28
2023-05-19T13:19:48.963Z,101235.71
2023-05-19T13:22:26.509Z,101234.79
2023-05-19T13:25:00.003Z,101234.84
2023-05-19T13:27:41.082Z,101232.02
2023-05-19T13:30:16.151Z,101231.93
2023-05-19T13:32:48.832Z,101234.30
2023-05-19T13:35:29.774Z,101233.98
2023-05-19T13:38:04.424Z,101233.29
2023-05-19T13:40:35.747Z,101230.71
2023-05-19T13:43:06.229Z,101232.33
2023-05-19T13:45:46.646Z,101229.26
2023-05-19T13:48:16.201Z,101232.02
2023-05-19T13:50:56.087Z,101230.53
2023-05-19T13:53:26.821Z,101230.01
2023-05-19T13:56:00.971Z,101231.17
2023-05-19T13:58:37.184Z,101230.16
2023-05-19T14:01:13.712Z,101227.67
2023-05-19T14:03:49.131Z,101226.11
2023-05-19T14:06:29.078Z,101225.29
2023-05-19T14:09:09.734Z,101223.77
2023-05-19T14:11:39.653Z,101224.23
2023-05-19T14:14:09.420Z,101217.45
2023-05-19T14:16:55.144Z,101222.84
2023-05-19T14:19:30.586Z,101221.75
2023-05-19T14:21:59.474Z,101222.92
2023-05-19T14:24:33.507Z,101219.46
2023-05-19T14:27:02.471Z,101216.14
2023-05-19T14:29:37.629Z,101216.22
2023-05-19T14:32:18.306Z,101216.29
2023-05-19T14:34:55.056Z,101213.70
2023-05-19T14:37:35.446Z,101215.31
2023-05-19T14:40:08.527Z,101211.95
2023-05-19T14:42:43.275Z,101211.45
2023-05-19T14:45:15.546Z,101208.92
2023-05-19T14:47:51.945Z,101207.03
2023-05-19T14:50:31.655Z,101206.80
2023-05-19T14:53:02.945Z,101208.66
2023-05-19T14:55:32.475Z,101203.78
2023-05-19T14:58:01.374Z,101196.91
2023-05-19T15:00:30.714Z,101199.42
2023-05-19T15:03:01.725Z,101201.59
2023-05-19T15:05:34.090Z,101199.64
2023-05-19T15:08:06.096Z,101202.14
2023-05-19T15:10:35.016Z,101198.33
2023-05-19T15:13:04.962Z,101198.61
2023-05-19T15:15:33.760Z,101193.42
2023-05-19T15:18:03.300Z,101193.02
2023-05-19T15:20:33.188Z,101194.21
2023-05-19T15:23:06.361Z,101192.50
2023-05-19T15:25:36.450Z,101192.69
2023-05-19T15:28:08.870Z,101194.48
2023-05-19T15:30:38.658Z,101190.91
2023-05-19T15:33:08.553Z,101189.88
2023-05-19T15:35:38.470Z,101193.19
2023-05-19T15:38:08.096Z,101190.63
2023-05-19T15:40:38.174Z,101189.90
2023-05-19T15:43:07.323Z,101186.95
2023-05-19T15:45:36.097Z,101186.14
2023-05-19T15:48:06.655Z,101187.86
2023-05-19T15:50:36.937Z,101186.46
2023-05-19T15:53:08.103Z,101190.67
2023-05-19T15:55:37.909Z,101191.21
2023-05-19T15:58:09.155Z,101192.41
2023-05-19T16:00:38.051Z,101189.48
2023-05-19T16:03:09.870Z,101190.55
2023-05-19T16:05:47.541Z,101188.31
2023-05-19T16:08:21.745Z,101190.48
2023-05-19T16:10:52.150Z,101194.08
2023-05-19T16:13:21.771Z,101191.16
2023-05-19T16:15:53.211Z,101191.23
2023-05-19T16:18:25.495Z,101180.37
2023-05-19T16:20:57.798Z,101187.84
2023-05-19T16:23:31.170Z,101189.27
2023-05-19T16:26:02.448Z,101191.92
2023-05-19T16:28:33.333Z,101193.67
2023-05-19T16:31:03.260Z,101190.48
2023-05-19T16:33:36.407Z,101190.53
2023-05-19T16:36:08.866Z,101184.36
2023-05-19T16:38:43.146Z,101189.98
2023-05-19T16:41:22.878Z,101182.28
2023-05-19T16:43:57.103Z,101181.49
2023-05-19T16:46:31.977Z,101178.69
2023-05-19T16:49:05.641Z,101177.46
2023-05-19T16:51:39.053Z,101186.36
2023-05-19T16:54:10.578Z,101183.78
2023-05-19T16:56:41.682Z,101186.80
2023-05-19T16:59:11.632Z,101184.88
2023-05-19T17:01:41.822Z,101183.52
2023-05-19T17:04:11.158Z,101186.52
2023-05-19T17:06:44.049Z,101186.61
2023-05-19T17:09:17.037Z,101187.51
2023-05-19T17:11:48.901Z,101185.00
2023-05-19T17:14:22.756Z,101186.09
2023-05-19T17:16:55.935Z,101186.14
2023-05-19T17:19:28.408Z,101188.06
2023-05-19T17:22:00.335Z,101186.70
2023-05-19T17:24:34.333Z,101186.77
2023-05-19T17:27:08.478Z,101188.67
2023-05-19T17:29:44.653Z,101190.80
2023-05-19T17:32:17.911Z,101192.05
2023-05-19T17:34:52.773Z,101192.14
2023-05-19T17:37:29.599Z,101194.79
2023-05-19T17:40:02.166Z,101196.80
2023-05-19T17:42:32.836Z,101196.71
2023-05-19T17:45:07.846Z,101194.38
2023-05-19T17:47:40.350Z,101197.37
2023-05-19T17:50:11.096Z,101198.25
2023-05-19T17:52:42.162Z,101196.84
2023-05-19T17:55:14.325Z,101203.85
2023-05-19T17:57:46.701Z,101204.36
2023-05-19T18:00:20.033Z,101205.52
2023-05-19T18:02:51.061Z,101202.38
2023-05-19T18:05:28.037Z,101203.20
2023-05-19T18:08:02.424Z,101201.95
2023-05-19T18:10:37.508Z,101198.92
2023-05-19T18:13:10.847Z,101195.66
2023-05-19T18:15:41.660Z,101192.20
2023-05-19T18:18:19.455Z,101193.98
2023-05-19T18:20:53.138Z,101191.06
2023-05-19T18:23:27.443Z,101191.83
2023-05-19T18:25:58.330Z,101190.45
2023-05-19T18:28:30.185Z,101188.05
2023-05-19T18:31:05.931Z,101189.52
2023-05-19T18:33:39.961Z,101179.98
2023-05-19T18:36:12.902Z,101189.56
2023-05-19T18:38:42.419Z,101188.58
2023-05-19T18:41:12.161Z,101191.80
2023-05-19T18:43:41.771Z,101192.23
2023-05-19T18:46:14.069Z,101194.43
2023-05-19T18:48:44.383Z,101195.69
2023-05-19T18:51:19.027Z,101196.84
2023-05-19T19:20:53.892Z,101227.38
2023-05-19T19:23:31.663Z,101227.77
2023-05-19T19:26:09.476Z,101228.65
2023-05-19T19:28:49.101Z,101228.61
2023-05-19T19:31:20.369Z,101229.17
2023-05-19T19:34:05.010Z,101229.88
2023-05-19T19:36:42.627Z,101232.45
2023-05-19T19:39:17.213Z,101229.58
2023-05-19T19:41:46.527Z,101227.17
2023-05-19T19:44:15.671Z,101227.61
2023-05-19T19:47:00.613Z,101224.78
2023-05-19T19:49:33.064Z,101226.50
2023-05-19T19:52:07.049Z,101225.85
2023-05-19T19:54:39.666Z,101227.59
2023-05-19T19:57:11.201Z,101224.77
2023-05-19T19:59:44.837Z,101225.77
2023-05-19T20:02:18.292Z,101230.58
2023-05-19T20:04:48.465Z,101231.18
2023-05-19T20:07:29.875Z,101233.89
2023-05-19T20:10:02.413Z,101238.48
2023-05-19T20:12:31.911Z,101240.73
2023-05-19T20:15:05.601Z,101239.45
2023-05-19T20:17:35.281Z,101240.46
2023-05-19T20:20:10.774Z,101237.73
2023-05-19T20:22:47.005Z,101236.29
2023-05-19T20:25:30.873Z,101231.41
2023-05-19T20:28:03.484Z,101237.20
2023-05-19T20:30:37.391Z,101232.40
2023-05-19T20:33:08.655Z,101230.23
2023-05-19T20:35:41.959Z,101235.15
2023-05-19T20:38:21.154Z,101237.70
2023-05-19T20:40:55.927Z,101241.34
2023-05-19T20:43:33.278Z,101241.12
2023-05-19T20:46:15.538Z,101240.73
2023-05-19T20:48:51.572Z,101237.59
2023-05-19T20:51:24.264Z,101234.70
2023-05-19T20:54:01.768Z,101226.61
2023-05-19T20:56:32.850Z,101225.73
2023-05-19T20:59:04.974Z,101224.83
2023-05-19T21:01:34.619Z,101225.80
2023-05-19T21:04:12.424Z,101222.20
2023-05-19T21:06:47.209Z,101219.08
2023-05-19T21:09:20.687Z,101217.30
2023-05-19T21:11:55.436Z,101214.77
2023-05-19T21:14:28.627Z,101213.91
2023-05-19T21:16:58.290Z,101211.65
2023-05-19T21:19:31.531Z,101212.04
2023-05-19T21:22:01.111Z,101211.81
2023-05-19T21:24:31.362Z,101212.02
2023-05-19T21:27:03.460Z,101215.17
2023-05-19T21:29:34.211Z,101214.80
2023-05-19T21:32:06.735Z,101216.52
2023-05-19T21:34:36.649Z,101215.47
2023-05-19T21:37:23.124Z,101216.70
2023-05-19T21:39:55.723Z,101216.85
2023-05-19T21:42:30.757Z,101220.23
2023-05-19T21:45:00.241Z,101216.48
2023-05-19T21:47:32.649Z,101219.71
2023-05-19T21:50:05.427Z,101220.40
2023-05-19T21:52:37.447Z,101216.02
2023-05-19T21:55:11.188Z,101215.66
2023-05-19T21:58:03.432Z,101214.66
2023-05-19T22:00:36.954Z,101214.11
2023-05-19T22:03:05.805Z,101210.60
2023-05-19T22:05:38.503Z,101212.61
2023-05-19T22:08:09.538Z,101214.44
2023-05-19T22:10:58.713Z,101214.84
2023-05-19T22:13:41.303Z,101212.34
2023-05-19T22:16:10.368Z,101210.09
2023-05-19T22:18:49.576Z,101209.61
2023-05-19T22:21:21.916Z,101207.98
2023-05-19T22:24:10.497Z,101211.71
2023-05-19T22:26:55.260Z,101202.83
2023-05-19T22:29:30.372Z,101203.59
2023-05-19T22:32:18.765Z,101201.16
2023-05-19T22:35:10.433Z,101199.77
2023-05-19T22:37:48.945Z,101198.23
2023-05-19T22:40:41.197Z,101190.68
2023-05-19T22:43:34.665Z,101191.73
2023-05-19T22:46:09.616Z,101184.18
2023-05-19T22:48:57.206Z,101188.58
2023-05-19T22:51:32.363Z,101185.88
2023-05-19T22:54:29.404Z,101190.13
2023-05-19T22:57:32.185Z,101189.16
2023-05-19T23:00:22.384Z,101188.36
2023-05-19T23:02:54.672Z,101191.17
2023-05-19T23:05:35.307Z,101193.98
2023-05-19T23:08:23.479Z,101188.71
2023-05-19T23:11:23.038Z,101191.04
2023-05-19T23:13:57.319Z,101187.63
2023-05-19T23:16:34.608Z,101187.34
2023-05-19T23:19:48.691Z,101185.48
2023-05-19T23:23:00.748Z,101186.04
2023-05-19T23:25:33.405Z,101185.05
2023-05-19T23:28:11.281Z,101185.79
2023-05-19T23:31:09.192Z,101182.86
2023-05-19T23:33:51.485Z,101183.58
2023-05-19T23:36:23.261Z,101180.20
2023-05-19T23:38:54.817Z,101177.27
2023-05-19T23:41:35.065Z,101181.48
2023-05-19T23:44:21.773Z,101178.13
2023-05-19T23:47:02.920Z,101178.29
2023-05-19T23:49:59.813Z,101179.25
2023-05-19T23:52:33.814Z,101177.48
2023-05-19T23:55:17.487Z,101175.67
2023-05-19T23:58:02.210Z,101175.92
